Oneonta, Alabama
Current Conditions -  °F | °C
As of 11:35 AM on Wednesday 26 Nov 2014 (Local Time) from KGAD Reporting Station
Clear Clear  
Wind Chill: 54°   Ceiling: Unl
Heat Index: 54°   Visibility: 10mi
Dew Point: 27°   Wind: 9mph
Humidity: 35%   Direction: 250°WSW
Pressure: 30.14"   Gusts: NA
Location:  33.95°N, 86.47°W
Report Text: KGAD 261735Z 25008KT 10SM CLR 12/M03 A3014 RMK AO1
Loading
Personal Weather Stations






























Interactive Weather Map New forecast layout! Learn more

10-Day Weather Forecast

Advertisements
Track Severe Weather on mobile